createdAt,value
2023-04-23T00:02:00.269Z,95717.00
2023-04-23T00:06:10.319Z,95719.00
2023-04-23T00:10:14.537Z,95719.00
2023-04-23T00:14:21.641Z,95726.00
2023-04-23T00:18:29.652Z,95722.00
2023-04-23T00:22:34.100Z,95714.00
2023-04-23T00:26:38.234Z,95702.00
2023-04-23T00:30:45.732Z,95702.00
2023-04-23T00:34:49.371Z,95699.00
2023-04-23T00:38:55.608Z,95703.00
2023-04-23T00:42:59.542Z,95695.00
2023-04-23T00:47:10.666Z,95697.00
2023-04-23T00:51:14.792Z,95690.00
2023-04-23T00:55:21.160Z,95692.00
2023-04-23T00:59:24.364Z,95685.00
2023-04-23T01:03:31.742Z,95684.00
2023-04-23T01:07:36.783Z,95682.00
2023-04-23T01:11:48.297Z,95686.00
2023-04-23T01:15:53.528Z,95681.00
2023-04-23T01:19:56.788Z,95691.00
2023-04-23T01:24:01.638Z,95691.00
2023-04-23T01:28:08.360Z,95690.00
2023-04-23T01:32:11.503Z,95693.00
2023-04-23T01:36:15.232Z,95689.00
2023-04-23T01:40:19.912Z,95695.00
2023-04-23T01:44:26.119Z,95688.00
2023-04-23T01:48:31.965Z,95699.00
2023-04-23T01:52:34.972Z,95700.00
2023-04-23T01:56:41.934Z,95704.00
2023-04-23T02:00:45.128Z,95707.00
2023-04-23T02:04:50.917Z,95708.00
2023-04-23T02:08:54.557Z,95708.00
2023-04-23T02:12:59.500Z,95694.00
2023-04-23T02:17:07.308Z,95689.00
2023-04-23T02:21:11.670Z,95691.00
2023-04-23T02:25:15.831Z,95700.00
2023-04-23T02:29:21.289Z,95696.00
2023-04-23T02:33:24.596Z,95704.00
2023-04-23T02:37:30.797Z,95698.00
2023-04-23T02:41:34.121Z,95697.00
2023-04-23T02:45:41.334Z,95702.00
2023-04-23T02:49:45.958Z,95698.00
2023-04-23T02:53:48.957Z,95699.00
2023-04-23T02:57:52.242Z,95705.00
2023-04-23T03:01:56.717Z,95706.00
2023-04-23T03:06:05.024Z,95699.00
2023-04-23T03:10:12.619Z,95709.00
2023-04-23T03:14:16.620Z,95701.00
2023-04-23T03:18:21.311Z,95710.00
2023-04-23T03:22:24.464Z,95708.00
2023-04-23T03:26:27.712Z,95707.00
2023-04-23T03:30:34.228Z,95706.00
2023-04-23T03:34:39.117Z,95711.00
2023-04-23T03:38:42.410Z,95717.00
2023-04-23T03:42:48.189Z,95711.00
2023-04-23T03:46:58.704Z,95720.00
2023-04-23T03:51:08.741Z,95715.00
2023-04-23T03:55:14.384Z,95717.00
2023-04-23T03:59:17.426Z,95726.00
2023-04-23T04:03:20.773Z,95717.00
2023-04-23T04:07:30.019Z,95721.00
2023-04-23T04:11:33.143Z,95716.00
2023-04-23T04:15:36.368Z,95725.00
2023-04-23T04:19:39.391Z,95722.00
2023-04-23T04:23:43.958Z,95729.00
2023-04-23T04:27:46.972Z,95727.00
2023-04-23T04:31:53.045Z,95726.00
2023-04-23T04:36:09.644Z,95727.00
2023-04-23T04:40:19.217Z,95727.00
2023-04-23T04:44:22.264Z,95729.00
2023-04-23T04:48:25.755Z,95728.00
2023-04-23T04:52:30.375Z,95732.00
2023-04-23T04:56:35.451Z,95740.00
2023-04-23T05:00:38.664Z,95742.00
2023-04-23T05:04:43.973Z,95745.00
2023-04-23T05:08:50.388Z,95749.00
2023-04-23T05:13:00.962Z,95746.00
2023-04-23T05:17:04.270Z,95768.00
2023-04-23T05:21:13.458Z,95764.00
2023-04-23T05:25:19.375Z,95780.00
2023-04-23T05:29:24.007Z,95777.00
2023-04-23T05:33:33.440Z,95782.00
2023-04-23T05:37:39.521Z,95797.00
2023-04-23T05:41:42.751Z,95792.00
2023-04-23T05:45:47.418Z,95796.00
2023-04-23T05:49:50.555Z,95796.00
2023-04-23T05:54:05.077Z,95795.00
2023-04-23T05:58:09.673Z,95807.00
2023-04-23T06:02:16.076Z,95810.00
2023-04-23T06:06:19.803Z,95810.00
2023-04-23T06:10:25.844Z,95813.00
2023-04-23T06:14:31.893Z,95811.00
2023-04-23T06:18:38.604Z,95814.00
2023-04-23T06:22:41.600Z,95806.00
2023-04-23T06:26:46.544Z,95811.00
2023-04-23T06:30:49.559Z,95813.00
2023-04-23T06:35:00.871Z,95804.00
2023-04-23T06:39:07.936Z,95814.00
2023-04-23T06:43:12.095Z,95805.00
2023-04-23T06:47:18.365Z,95806.00
2023-04-23T06:51:22.857Z,95802.00
2023-04-23T06:55:27.607Z,95798.00
2023-04-23T06:59:33.339Z,95807.00
2023-04-23T07:03:36.984Z,95808.00
2023-04-23T07:07:47.502Z,95808.00
2023-04-23T07:11:51.175Z,95803.00
2023-04-23T07:15:55.332Z,95797.00
2023-04-23T07:20:05.181Z,95791.00
2023-04-23T07:24:14.302Z,95798.00
2023-04-23T07:28:20.949Z,95807.00
2023-04-23T07:32:28.438Z,95804.00
2023-04-23T07:36:36.058Z,95811.00
2023-04-23T07:40:40.814Z,95819.00
2023-04-23T07:44:46.490Z,95825.00
2023-04-23T07:48:50.838Z,95813.00
2023-04-23T07:52:54.173Z,95812.00
2023-04-23T07:57:03.188Z,95825.00
2023-04-23T08:01:08.413Z,95822.00
2023-04-23T08:05:14.621Z,95822.00
2023-04-23T08:09:19.762Z,95816.00
2023-04-23T08:13:24.269Z,95812.00
2023-04-23T08:17:27.285Z,95807.00
2023-04-23T08:21:31.274Z,95802.00
2023-04-23T08:25:34.726Z,95806.00
2023-04-23T08:29:40.748Z,95795.00
2023-04-23T08:33:44.387Z,95792.00
2023-04-23T08:37:47.451Z,95800.00
2023-04-23T08:41:56.057Z,95796.00
2023-04-23T08:46:05.249Z,95800.00
2023-04-23T08:50:10.157Z,95798.00
2023-04-23T08:54:17.069Z,95796.00
2023-04-23T08:58:24.210Z,95792.00
2023-04-23T09:02:34.898Z,95780.00
2023-04-23T09:06:38.370Z,95783.00
2023-04-23T09:10:42.268Z,95787.00
2023-04-23T09:14:48.105Z,95783.00
2023-04-23T09:18:53.198Z,95783.00
2023-04-23T09:22:56.877Z,95777.00
2023-04-23T09:27:04.996Z,95778.00
2023-04-23T09:31:22.401Z,95771.00
2023-04-23T09:35:29.155Z,95765.00
2023-04-23T09:39:37.464Z,95766.00
2023-04-23T09:43:45.208Z,95767.00
2023-04-23T09:47:53.689Z,95769.00
2023-04-23T09:51:58.987Z,95787.00
2023-04-23T09:56:03.904Z,95786.00
2023-04-23T10:00:19.802Z,95789.00
2023-04-23T10:04:25.695Z,95793.00
2023-04-23T10:08:32.288Z,95787.00
2023-04-23T10:12:53.686Z,95782.00
2023-04-23T10:17:00.198Z,95777.00
2023-04-23T10:21:06.323Z,95777.00
2023-04-23T10:25:16.630Z,95773.00
2023-04-23T10:29:27.224Z,95772.00
2023-04-23T10:33:39.804Z,95770.00
2023-04-23T10:37:48.349Z,95772.00
2023-04-23T10:41:54.230Z,95772.00
2023-04-23T10:45:58.171Z,95763.00
2023-04-23T10:50:22.880Z,95767.00
2023-04-23T10:54:33.037Z,95769.00
2023-04-23T10:58:52.856Z,95767.00
2023-04-23T11:02:57.796Z,95768.00
2023-04-23T11:07:08.167Z,95756.00
2023-04-23T11:11:11.539Z,95761.00
2023-04-23T11:15:20.350Z,95752.00
2023-04-23T11:19:26.149Z,95747.00
2023-04-23T11:23:35.293Z,95746.00
2023-04-23T11:27:40.867Z,95737.00
2023-04-23T11:32:00.899Z,95733.00
2023-04-23T11:36:07.973Z,95735.00
2023-04-23T11:40:14.193Z,95717.00
2023-04-23T11:44:20.307Z,95706.00
2023-04-23T11:48:27.752Z,95685.00
2023-04-23T11:52:30.869Z,95685.00
2023-04-23T11:56:38.636Z,95685.00
2023-04-23T12:00:41.747Z,95681.00
2023-04-23T12:04:46.538Z,95679.00
2023-04-23T12:08:52.484Z,95689.00
2023-04-23T12:12:59.623Z,95689.00
2023-04-23T12:17:13.949Z,95688.00
2023-04-23T12:21:19.402Z,95693.00
2023-04-23T12:25:26.370Z,95680.00
2023-04-23T12:29:31.608Z,95676.00
2023-04-23T12:33:34.678Z,95671.00
2023-04-23T12:37:39.055Z,95659.00
2023-04-23T12:41:42.168Z,95658.00
2023-04-23T12:45:45.896Z,95660.00
2023-04-23T12:49:53.463Z,95650.00
2023-04-23T12:54:01.232Z,95649.00
2023-04-23T12:58:08.456Z,95657.00
2023-04-23T13:02:12.296Z,95645.00
2023-04-23T13:06:15.522Z,95633.00
2023-04-23T13:10:20.524Z,95637.00
2023-04-23T13:14:23.740Z,95631.00
2023-04-23T13:18:31.614Z,95615.00
2023-04-23T13:22:34.585Z,95600.00
2023-04-23T13:26:41.630Z,95595.00
2023-04-23T13:30:44.669Z,95589.00
2023-04-23T13:34:49.268Z,95580.00
2023-04-23T13:43:16.214Z,95566.00
2023-04-23T13:47:19.511Z,95558.00
2023-04-23T13:51:34.886Z,95547.00
2023-04-23T13:55:43.924Z,95537.00
2023-04-23T13:59:48.610Z,95536.00
2023-04-23T14:03:56.629Z,95523.00
2023-04-23T14:08:02.244Z,95525.00
2023-04-23T14:12:08.526Z,95523.00
2023-04-23T14:16:17.859Z,95511.00
2023-04-23T14:20:22.591Z,95507.00
2023-04-23T14:24:31.106Z,95513.00
2023-04-23T14:28:46.107Z,95507.00
2023-04-23T14:32:55.193Z,95509.00
2023-04-23T14:36:58.756Z,95506.00
2023-04-23T14:41:04.357Z,95496.00
2023-04-23T14:45:08.924Z,95483.00
2023-04-23T14:49:15.792Z,95477.00
2023-04-23T14:53:21.723Z,95471.00
2023-04-23T14:57:35.521Z,95480.00
2023-04-23T15:01:43.582Z,95476.00
2023-04-23T15:05:48.075Z,95469.00
2023-04-23T15:09:52.630Z,95461.00
2023-04-23T15:14:04.853Z,95450.00
2023-04-23T15:18:12.065Z,95444.00
2023-04-23T15:22:16.677Z,95438.00
2023-04-23T15:26:24.324Z,95430.00
2023-04-23T15:30:28.906Z,95425.00
2023-04-23T15:34:31.939Z,95424.00
2023-04-23T15:38:36.963Z,95409.00
2023-04-23T15:42:42.642Z,95408.00
2023-04-23T15:46:45.687Z,95407.00
2023-04-23T15:50:53.429Z,95397.00
2023-04-23T15:54:58.050Z,95393.00
2023-04-23T15:59:03.046Z,95386.00
2023-04-23T16:03:09.008Z,95374.00
2023-04-23T16:07:12.135Z,95371.00
2023-04-23T16:11:19.620Z,95375.00
2023-04-23T16:15:23.022Z,95371.00
2023-04-23T16:19:26.357Z,95371.00
2023-04-23T16:23:29.594Z,95371.00
2023-04-23T16:27:34.867Z,95368.00
2023-04-23T16:31:38.890Z,95369.00
2023-04-23T16:35:42.100Z,95360.00
2023-04-23T16:39:46.809Z,95362.00
2023-04-23T16:43:53.666Z,95361.00
2023-04-23T16:47:57.293Z,95360.00
2023-04-23T16:52:01.885Z,95358.00
2023-04-23T16:56:06.107Z,95363.00
2023-04-23T17:00:15.347Z,95360.00
2023-04-23T17:04:21.890Z,95370.00
2023-04-23T17:08:29.514Z,95350.00
2023-04-23T17:12:32.503Z,95353.00
2023-04-23T17:16:37.501Z,95345.00
2023-04-23T17:20:45.851Z,95335.00
2023-04-23T17:24:51.606Z,95333.00
2023-04-23T17:28:56.778Z,95328.00
2023-04-23T17:33:13.005Z,95317.00
2023-04-23T17:37:18.152Z,95316.00
2023-04-23T17:41:25.207Z,95316.00
2023-04-23T17:45:29.332Z,95306.00
2023-04-23T17:49:35.774Z,95308.00
2023-04-23T17:53:39.158Z,95295.00
2023-04-23T17:57:44.366Z,95289.00
2023-04-23T18:01:47.905Z,95290.00
2023-04-23T18:05:52.582Z,95296.00
2023-04-23T18:09:55.778Z,95300.00
2023-04-23T18:13:59.270Z,95300.00
2023-04-23T18:18:03.741Z,95315.00
2023-04-23T18:22:08.327Z,95313.00
2023-04-23T18:26:11.587Z,95313.00
2023-04-23T18:30:23.303Z,95314.00
2023-04-23T18:34:31.166Z,95312.00
2023-04-23T18:38:47.948Z,95308.00
2023-04-23T18:42:53.841Z,95303.00
2023-04-23T18:46:57.042Z,95292.00
2023-04-23T18:51:04.740Z,95300.00
2023-04-23T18:55:12.204Z,95302.00
2023-04-23T18:59:17.326Z,95284.00
2023-04-23T19:03:26.815Z,95290.00
2023-04-23T19:07:30.580Z,95292.00
2023-04-23T19:11:37.995Z,95286.00
2023-04-23T19:15:43.093Z,95288.00
2023-04-23T19:19:46.436Z,95299.00
2023-04-23T19:23:51.708Z,95301.00
2023-04-23T19:27:57.939Z,95313.00
2023-04-23T19:32:01.047Z,95320.00
2023-04-23T19:36:04.530Z,95320.00
2023-04-23T19:40:09.569Z,95336.00
2023-04-23T19:44:23.509Z,95336.00
2023-04-23T19:48:27.755Z,95352.00
2023-04-23T19:52:30.827Z,95402.00
2023-04-23T19:56:36.281Z,95421.00
2023-04-23T20:00:41.852Z,95442.00
2023-04-23T20:04:45.714Z,95453.00
2023-04-23T20:09:09.211Z,95440.00
2023-04-23T20:13:19.417Z,95421.00
2023-04-23T20:17:26.584Z,95413.00
2023-04-23T20:21:29.652Z,95397.00
2023-04-23T20:25:33.559Z,95412.00
2023-04-23T20:29:36.925Z,95406.00
2023-04-23T20:33:48.293Z,95405.00
2023-04-23T20:37:53.548Z,95399.00
2023-04-23T20:42:01.073Z,95380.00
2023-04-23T20:46:10.780Z,95385.00
2023-04-23T20:50:15.322Z,95392.00
2023-04-23T20:54:18.462Z,95395.00
2023-04-23T20:58:21.495Z,95393.00
2023-04-23T21:02:24.645Z,95389.00
2023-04-23T21:06:31.318Z,95383.00
2023-04-23T21:10:34.695Z,95389.00
2023-04-23T21:14:39.110Z,95382.00
2023-04-23T21:18:44.902Z,95387.00
2023-04-23T21:22:49.317Z,95387.00
2023-04-23T21:26:56.115Z,95387.00
2023-04-23T21:31:09.840Z,95382.00
2023-04-23T21:35:16.778Z,95388.00
2023-04-23T21:39:22.243Z,95374.00
2023-04-23T21:43:27.507Z,95369.00
2023-04-23T21:47:41.653Z,95373.00
2023-04-23T21:51:44.709Z,95383.00
2023-04-23T21:55:49.156Z,95370.00
2023-04-23T21:59:56.830Z,95372.00
2023-04-23T22:04:00.266Z,95364.00
2023-04-23T22:08:05.994Z,95362.00
2023-04-23T22:12:11.894Z,95363.00
2023-04-23T22:16:27.448Z,95362.00
2023-04-23T22:20:32.217Z,95368.00
2023-04-23T22:24:41.765Z,95367.00
2023-04-23T22:28:46.760Z,95371.00
2023-04-23T22:32:49.813Z,95372.00
2023-04-23T22:36:55.752Z,95367.00
2023-04-23T22:40:59.625Z,95378.00
2023-04-23T22:45:04.342Z,95368.00
2023-04-23T22:49:11.177Z,95380.00
2023-04-23T22:53:16.944Z,95376.00
2023-04-23T22:57:22.043Z,95377.00
2023-04-23T23:01:29.119Z,95376.00
2023-04-23T23:05:32.189Z,95380.00
2023-04-23T23:09:35.349Z,95377.00
2023-04-23T23:13:43.928Z,95374.00
2023-04-23T23:17:49.767Z,95375.00
2023-04-23T23:21:59.721Z,95373.00
2023-04-23T23:26:17.234Z,95372.00
2023-04-23T23:30:23.190Z,95375.00
2023-04-23T23:34:30.496Z,95375.00
2023-04-23T23:38:36.356Z,95371.00
2023-04-23T23:42:43.358Z,95375.00
2023-04-23T23:46:46.696Z,95365.00
2023-04-23T23:50:51.207Z,95357.00
2023-04-23T23:54:54.493Z,95358.00
2023-04-23T23:58:58.887Z,95343.00
